createdAt,value
2018-09-19T00:00:50.968Z,84.20
2018-09-19T00:05:55.158Z,64.57
2018-09-19T00:10:59.661Z,102.17
2018-09-19T00:16:03.492Z,86.27
2018-09-19T00:21:07.492Z,58.93
2018-09-19T00:26:11.627Z,44.50
2018-09-19T00:31:15.133Z,77.93
2018-09-19T00:36:21.173Z,88.47
2018-09-19T00:41:25.851Z,83.17
2018-09-19T00:46:30.627Z,88.13
2018-09-19T00:51:34.806Z,62.80
2018-09-19T00:56:38.651Z,84.10
2018-09-19T01:01:42.530Z,93.53
2018-09-19T01:06:46.208Z,65.23
2018-09-19T01:11:49.552Z,70.77
2018-09-19T01:16:53.417Z,97.83
2018-09-19T01:21:57.110Z,92.93
2018-09-19T01:27:01.055Z,88.40
2018-09-19T01:32:05.012Z,75.83
2018-09-19T01:37:08.507Z,53.87
2018-09-19T01:42:12.499Z,96.43
2018-09-19T01:47:15.965Z,94.57
2018-09-19T01:52:19.537Z,109.33
2018-09-19T01:57:25.034Z,75.00
2018-09-19T02:02:28.387Z,54.13
2018-09-19T02:07:31.861Z,58.73
2018-09-19T02:12:35.551Z,55.63
2018-09-19T02:17:39.101Z,67.00
2018-09-19T02:22:42.781Z,66.73
2018-09-19T02:27:47.264Z,52.77
2018-09-19T02:32:50.752Z,68.20
2018-09-19T02:37:54.115Z,39.27
2018-09-19T02:42:57.982Z,64.27
2018-09-19T02:48:01.776Z,56.93
2018-09-19T02:53:05.600Z,92.70
2018-09-19T02:58:09.652Z,79.67
2018-09-19T03:03:13.718Z,48.23
2018-09-19T03:08:17.397Z,56.47
2018-09-19T03:13:21.324Z,51.83
2018-09-19T03:18:25.156Z,43.47
2018-09-19T03:23:28.908Z,44.10
2018-09-19T03:28:32.656Z,90.57
2018-09-19T03:33:36.621Z,80.53
2018-09-19T03:38:40.505Z,105.33
2018-09-19T03:43:45.298Z,81.40
2018-09-19T03:48:49.168Z,91.80
2018-09-19T03:53:52.737Z,74.23
2018-09-19T03:58:56.565Z,81.73
2018-09-19T04:04:00.296Z,108.27
2018-09-19T04:09:07.428Z,71.27
2018-09-19T04:14:11.996Z,89.87
2018-09-19T04:19:15.359Z,50.00
2018-09-19T04:24:18.714Z,94.77
2018-09-19T04:29:22.373Z,74.80
2018-09-19T04:34:25.717Z,86.97
2018-09-19T04:39:29.825Z,66.80
2018-09-19T04:44:33.326Z,63.37
2018-09-19T04:49:36.817Z,71.33
2018-09-19T04:54:40.236Z,63.00
2018-09-19T04:59:44.493Z,55.70
2018-09-19T05:04:47.821Z,49.73
2018-09-19T05:09:51.465Z,46.60
2018-09-19T05:14:55.024Z,58.73
2018-09-19T05:19:58.508Z,34.50
2018-09-19T05:25:04.338Z,40.97
2018-09-19T05:30:07.957Z,25.33
2018-09-19T05:35:11.269Z,51.93
2018-09-19T05:40:15.084Z,26.37
2018-09-19T05:45:19.270Z,35.00
2018-09-19T05:50:22.704Z,36.40
2018-09-19T05:55:26.077Z,49.37
2018-09-19T06:00:29.728Z,34.80
2018-09-19T06:05:33.128Z,36.50
2018-09-19T06:10:36.492Z,35.77
2018-09-19T06:15:40.411Z,38.30
2018-09-19T06:20:43.725Z,23.73
2018-09-19T06:25:47.005Z,33.67
2018-09-19T06:30:50.331Z,34.20
2018-09-19T06:35:58.349Z,46.80
2018-09-19T06:41:02.075Z,45.37
2018-09-19T06:46:05.993Z,38.00
2018-09-19T06:51:09.434Z,32.90
2018-09-19T06:56:12.824Z,43.50
2018-09-19T07:01:16.281Z,47.40
2018-09-19T07:06:19.574Z,30.17
2018-09-19T07:11:23.058Z,47.83
2018-09-19T07:16:26.703Z,38.50
2018-09-19T07:21:30.054Z,56.57
2018-09-19T07:26:33.820Z,30.30
2018-09-19T07:31:38.578Z,49.37
2018-09-19T07:36:41.950Z,49.83
2018-09-19T07:41:46.081Z,35.23
2018-09-19T07:46:49.455Z,49.33
2018-09-19T07:51:53.183Z,57.83
2018-09-19T07:56:56.529Z,38.93
2018-09-19T08:02:00.288Z,45.20
2018-09-19T08:07:03.652Z,31.60
2018-09-19T08:12:06.983Z,23.83
2018-09-19T08:17:10.372Z,39.47
2018-09-19T08:22:13.959Z,26.00
2018-09-19T08:27:17.788Z,30.73
2018-09-19T08:32:21.165Z,24.57
2018-09-19T08:37:24.596Z,31.00
2018-09-19T08:42:27.912Z,28.90
2018-09-19T08:47:31.279Z,32.07
2018-09-19T08:52:34.621Z,43.83
2018-09-19T08:57:37.965Z,34.17
2018-09-19T09:02:41.664Z,25.37
2018-09-19T09:07:45.026Z,29.87
2018-09-19T09:12:53.538Z,25.57
2018-09-19T09:17:57.215Z,20.80
2018-09-19T09:23:00.642Z,26.40
2018-09-19T09:28:04.149Z,24.80
2018-09-19T09:33:07.889Z,21.67
2018-09-19T09:38:11.799Z,21.87
2018-09-19T09:43:15.279Z,24.90
2018-09-19T09:48:18.772Z,25.53
2018-09-19T09:53:22.339Z,30.93
2018-09-19T09:58:25.865Z,14.97
2018-09-19T10:03:30.810Z,19.90
2018-09-19T10:08:34.640Z,25.87
2018-09-19T10:13:38.131Z,13.57
2018-09-19T10:18:42.397Z,16.70
2018-09-19T10:23:46.375Z,14.10
2018-09-19T10:28:49.855Z,18.60
2018-09-19T10:33:53.491Z,14.23
2018-09-19T10:38:57.282Z,12.87
2018-09-19T10:44:00.909Z,14.10
2018-09-19T10:49:04.408Z,18.53
2018-09-19T10:54:07.869Z,19.00
2018-09-19T10:59:11.295Z,12.50
2018-09-19T11:04:15.044Z,15.73
2018-09-19T11:09:18.530Z,13.97
2018-09-19T11:14:22.340Z,22.47
2018-09-19T11:19:25.832Z,26.00
2018-09-19T11:24:30.147Z,15.70
2018-09-19T11:29:33.635Z,18.93
2018-09-19T11:34:37.328Z,23.70
2018-09-19T11:39:40.807Z,24.20
2018-09-19T11:44:44.881Z,17.53
2018-09-19T11:49:48.413Z,18.93
2018-09-19T11:54:51.913Z,28.23
2018-09-19T11:59:55.404Z,28.67
2018-09-19T12:05:00.033Z,14.73
2018-09-19T12:10:03.591Z,19.87
2018-09-19T12:15:07.135Z,15.33
2018-09-19T12:20:10.690Z,17.47
2018-09-19T12:25:14.548Z,15.50
2018-09-19T12:30:18.100Z,18.17
2018-09-19T12:35:21.732Z,19.83
2018-09-19T12:40:25.194Z,14.37
2018-09-19T12:45:28.833Z,21.43
2018-09-19T12:50:32.227Z,18.40
2018-09-19T12:55:35.711Z,16.77
2018-09-19T13:00:40.516Z,21.73
2018-09-19T13:05:44.208Z,8.57
2018-09-19T13:10:47.680Z,14.80
2018-09-19T13:15:51.234Z,14.30
2018-09-19T13:20:54.778Z,18.13
2018-09-19T13:25:58.239Z,17.83
2018-09-19T13:31:02.038Z,17.83
2018-09-19T13:36:05.600Z,11.90
2018-09-19T13:41:09.069Z,15.87
2018-09-19T13:46:12.650Z,25.97
2018-09-19T13:51:21.549Z,14.57
2018-09-19T13:56:29.077Z,14.47
2018-09-19T14:01:32.785Z,17.73
2018-09-19T14:06:36.315Z,18.47
2018-09-19T14:11:39.926Z,16.20
2018-09-19T14:16:43.396Z,21.63
2018-09-19T14:21:46.947Z,21.80
2018-09-19T14:26:50.430Z,20.73
2018-09-19T14:31:53.966Z,17.07
2018-09-19T14:36:57.960Z,19.10
2018-09-19T14:42:01.424Z,11.40
2018-09-19T14:47:05.216Z,27.20
2018-09-19T14:52:08.809Z,17.43
2018-09-19T14:57:13.158Z,21.17
2018-09-19T15:02:16.644Z,27.17
2018-09-19T15:07:20.604Z,30.80
2018-09-19T15:12:24.122Z,33.63
2018-09-19T15:17:27.579Z,35.70
2018-09-19T15:22:31.068Z,34.40
2018-09-19T15:27:34.391Z,40.17
2018-09-19T15:32:37.735Z,45.20
2018-09-19T15:37:41.781Z,47.93
2018-09-19T15:42:45.146Z,55.77
2018-09-19T15:47:49.114Z,46.13
2018-09-19T15:52:52.488Z,48.30
2018-09-19T15:57:55.955Z,33.77
2018-09-19T16:02:59.282Z,37.70
2018-09-19T16:08:03.152Z,36.27
2018-09-19T16:13:09.043Z,45.73
2018-09-19T16:18:12.446Z,52.97
2018-09-19T16:23:19.799Z,39.93
2018-09-19T16:28:27.859Z,29.97
2018-09-19T16:33:31.509Z,31.90
2018-09-19T16:38:35.677Z,39.80
2018-09-19T16:43:39.409Z,33.50
2018-09-19T16:48:42.760Z,49.17
2018-09-19T16:53:46.585Z,38.30
2018-09-19T16:58:49.998Z,29.60
2018-09-19T17:03:53.408Z,44.87
2018-09-19T17:08:57.191Z,28.80
2018-09-19T17:14:00.896Z,24.23
2018-09-19T17:19:04.334Z,36.73
2018-09-19T17:24:09.327Z,36.63
2018-09-19T17:29:13.408Z,35.63
2018-09-19T17:34:17.536Z,27.33
2018-09-19T17:39:21.621Z,29.30
2018-09-19T17:44:25.289Z,25.93
2018-09-19T17:49:30.446Z,32.20
2018-09-19T17:54:34.233Z,28.07
2018-09-19T17:59:37.845Z,22.87
2018-09-19T18:04:45.924Z,20.00
2018-09-19T18:09:50.082Z,16.13
2018-09-19T18:14:54.808Z,29.10
2018-09-19T18:19:59.431Z,19.63
2018-09-19T18:25:03.794Z,20.23
2018-09-19T18:30:09.026Z,29.17
2018-09-19T18:35:16.393Z,41.90
2018-09-19T18:40:21.673Z,23.57
2018-09-19T18:45:26.535Z,24.90
2018-09-19T18:50:31.480Z,20.73
2018-09-19T18:55:36.554Z,18.50
2018-09-19T19:00:41.462Z,20.40
2018-09-19T19:05:48.440Z,14.20
2018-09-19T19:10:54.167Z,12.30
2018-09-19T19:15:58.941Z,9.47
2018-09-19T19:21:05.123Z,16.13
2018-09-19T19:26:09.833Z,10.40
2018-09-19T19:31:14.963Z,14.57
2018-09-19T19:36:20.324Z,19.13
2018-09-19T19:41:25.510Z,22.50
2018-09-19T19:46:30.453Z,17.30
2018-09-19T19:51:35.568Z,20.53
2018-09-19T19:56:44.616Z,16.53
2018-09-19T20:01:50.913Z,18.93
2018-09-19T20:06:56.163Z,16.77
2018-09-19T20:12:05.090Z,15.53
2018-09-19T20:17:09.874Z,16.33
2018-09-19T20:22:14.379Z,11.40
2018-09-19T20:27:18.754Z,19.43
2018-09-19T20:32:23.697Z,15.63
2018-09-19T20:37:27.324Z,20.63
2018-09-19T20:42:30.962Z,23.00
2018-09-19T20:47:35.312Z,16.80
2018-09-19T20:52:38.827Z,22.90
2018-09-19T20:57:42.503Z,14.27
2018-09-19T21:02:45.968Z,18.07
2018-09-19T21:07:49.393Z,18.07
2018-09-19T21:12:53.148Z,17.43
2018-09-19T21:17:57.761Z,19.53
2018-09-19T21:23:02.006Z,20.33
2018-09-19T21:28:05.503Z,17.13
2018-09-19T21:33:08.905Z,23.43
2018-09-19T21:38:13.172Z,25.60
2018-09-19T21:43:16.541Z,26.10
2018-09-19T21:48:20.321Z,14.80
2018-09-19T21:53:23.612Z,20.67
2018-09-19T21:58:27.246Z,18.50
2018-09-19T22:03:31.019Z,24.40
2018-09-19T22:08:34.606Z,24.60
2018-09-19T22:13:38.303Z,15.70
2018-09-19T22:18:42.000Z,23.73
2018-09-19T22:23:45.672Z,17.37
2018-09-19T22:28:49.870Z,23.93
2018-09-19T22:33:53.315Z,25.33
2018-09-19T22:38:56.931Z,33.40
2018-09-19T22:44:00.788Z,26.90
2018-09-19T22:49:04.427Z,29.87
2018-09-19T22:54:08.477Z,37.93
2018-09-19T22:59:12.708Z,35.73
2018-09-19T23:04:16.133Z,26.83
2018-09-19T23:09:19.854Z,28.37
2018-09-19T23:14:23.879Z,24.37
2018-09-19T23:19:28.008Z,34.40
2018-09-19T23:24:32.237Z,39.43
2018-09-19T23:29:36.178Z,33.50
2018-09-19T23:34:39.988Z,35.23
2018-09-19T23:39:43.450Z,25.30
2018-09-19T23:44:47.280Z,37.83
2018-09-19T23:49:50.921Z,35.00
2018-09-19T23:54:55.083Z,50.20
2018-09-19T23:59:59.012Z,30.23
